Guayaramerin, Bolivia
Current Conditions -  °F | °C
As of 10:00 AM on Thursday 23 Oct 2014 (Local Time) from SLRI Reporting Station
Smoke Smoke  
Wind Chill: 84°   Ceiling: 20000
Heat Index: 92°   Visibility: 3mi
Dew Point: 75°   Wind: 0mph
Humidity: 74%   Direction: NA
Pressure: 29.91"   Gusts: NA
Location:  10.83°S, 65.41°W
Report Text: SLRI 231400Z 00000KT 5000 FU SCT020 FEW023CB BKN200 29/24 Q1013
Loading
Personal Weather Stations






























Interactive Weather Map
Tropical Storm Tracking
New forecast layout! Learn more

10-Day Weather Forecast

Advertisements
Track Severe Weather on mobile